AirNav   Bose ProFlight Aviation Headset
 
 1659 users online  

52U Weatherby USFS Airport
Atlanta, Idaho, USA

GOING TO ATLANTA?


FAA INFORMATION EFFECTIVE 19 JULY 2018

Location

FAA Identifier: 52U
Lat/Long: 43-49-30.5000N / 115-19-52.9000W
43-49.508333N / 115-19.881667W
43.8251389 / -115.3313611
(estimated)
Elevation: 4503 ft. / 1372.5 m (surveyed)
Variation: 17E (1985)
From city: 9 miles NW of ATLANTA, ID
Time zone: UTC -6 (UTC -7 during Standard Time)
Zip code: 83622

Airport Operations

Airport use: Open to the public
Control tower: no
ARTCC: SALT LAKE CITY CENTER
FSS: BOISE FLIGHT SERVICE STATION
NOTAMs facility: BOI (NOTAM-D service available)
Attendance: UNATNDD
Wind indicator: yes
Segmented circle: no

Airport Communications

CTAF: 122.9

Airport Services

Parking: tiedowns
Airframe service: NONE
Powerplant service: NONE
Bottled oxygen: NONE
Bulk oxygen: NONE

Runway Information

Runway 3/21

Dimensions: 2200 x 60 ft. / 671 x 18 m
Surface: turf/dirt, in fair condition
Runway edge markings: RY 03/21 THRS & EDGES MKD WITH PAINTED ROCKS.
RUNWAY 3  RUNWAY 21
Latitude: 43-49.398030N43-49.619962N
Longitude: 115-20.079173W115-19.683798W
Elevation: 4494.0 ft.4503.0 ft.
Gradient: 0.4% UP0.4%
Traffic pattern: leftleft
Runway heading: 035 magnetic, 052 true215 magnetic, 232 true
Obstructions: 125 ft. tree, 87 ft. left of centerline
+60 FT TREES IN APCH 80-125 FT L & 25-500 FT FM END OF RY; +18 FT ROAD AT 0 FT 105 FT L.
75 ft. tree, 5 ft. from runway, 75 ft. left of centerline
+30 FT TREES AT 50 FT 80 FT LEFT; +17 FT ROAD 0 FT 120 FEET RIGHT; +40 FT TREES AT 350 ON CNTRLN; 30 FT TREES AT 250 FT 50 FT RIGHT; 1000 FT TIMBERED RIDGE AT 3500 FT ON CNTRLN.

Airport Ownership and Management from official FAA records

Ownership: Publicly-owned
Owner: US FOREST SERVICE
324 25TH ST
OGDEN, UT 84401
Phone 801-625-5511
Manager: IDAHO CITY RANGER DISTRICT
3833 HIGHWAY 21, PO BOX 129
IDAHO CITY, ID 83631
Phone 208 392 6681

Airport Operational Statistics

Aircraft operations: avg 62/month *
100% transient general aviation
* for 12-month period ending 13 June 2016

Additional Remarks

RECOMMEND LNDG RWY 03; TKOF RWY 21 WHEN WIND CONDITIONS ALLOW.
ARPT LCTD IN NRW RIVER CANYON SUBJECT TO LCL TURBC CAUSED BY THE TRRN CONFIGN.
NO WINTER MAINTENANCE.
-2' DITCHES PARALLEL TO BOTH SIDES OF RWY.
NO TELEPHONE AVBL AT ARPT.

Instrument Procedures

There are no published instrument procedures at 52U.

Some nearby airports with instrument procedures:

KBOI - Boise Air Terminal/Gowen Field (42 nm W)
U76 - Mountain Home Municipal Airport (45 nm SW)
KSUN - Friedman Memorial Airport (49 nm SE)
KMUO - Mountain Home Air Force Base (52 nm SW)
KMAN - Nampa Municipal Airport (54 nm W)
 
Loc | Ops | Rwys | IFR | FBO | Links
Com | Nav | Svcs | Stats | Notes


 
Area around 52U (Weatherby USFS Airport)
 
Road maps at: MapQuest Bing Google
 
Aerial photo
WARNING: Photo may not be current or correct
Aerial photo of 52U (Weatherby USFS Airport)
Do you have a better or more recent aerial photo of Weatherby USFS Airport that you would like to share? If so, please send us your photo.

 
Sectional chart

 
Airport distance calculator
Flying to Weatherby USFS Airport? Find the distance to fly.

From to 52U

Sunrise and sunset
Times for 14-Aug-2018
 Local
(UTC-6)
 Zulu
(UTC)
Morning civil twilight06:1412:14
Sunrise06:4512:45
Sunset20:4602:46
Evening civil twilight21:1803:18

Current date and time
Zulu (UTC)  14-Aug-2018 20:08:37
Local (UTC-6)  14-Aug-2018 14:08:37
 
METAR
KSNT 
27nm NE 
141951Z AUTO 35007G15KT 27/M06 A3018 RMK AO1 SLP122 T02671056
KBOI 
42nm W 
141953Z VRB06KT 9SM CLR 31/07 A2996 RMK AO2 SLP117 T03060067
U76 
45nm SW 
SuperAWOS
141855Z AUTO 29004KT 10SM 31/05 A2996
KSUN 
49nm SE 
141947Z 11005KT 10SM SKC 29/M01 A3007
TAF
KBOI 
42nm W 
141721Z 1418/1518 30010KT P6SM SKC FM150600 15006KT P6SM SKC
KSUN 
49nm SE 
141730Z 1418/1524 13011KT P6SM SKC FM142100 22011KT P6SM SKC FM150300 30010KT P6SM FEW200 FM151800 15006KT P6SM SCT150
NOTAMs
Click for the latest NOTAMs
NOTAMs are issued by the DoD/FAA and will open in a separate window not controlled by AirNav.

 

 
 

Would you like to see your business listed on this page?

 If your business provides an interesting product or service to pilots, flight crews, aircraft, or users of the Weatherby USFS Airport, you should consider listing it here.  To start the listing process, click on the button below
 
Add a business
 

Other Pages about Weatherby USFS Airport

Update a link
 
Copyright © AirNav, LLC. All rights reserved. Privacy Policy  Contact